createdAt,value
2022-10-22T00:01:05.350Z,48.4
2022-10-22T00:06:24.147Z,48.4
2022-10-22T00:11:42.650Z,49.3
2022-10-22T00:17:00.556Z,49.2
2022-10-22T00:22:19.334Z,49.3
2022-10-22T00:27:39.062Z,49.5
2022-10-22T00:32:58.179Z,50.5
2022-10-22T00:38:16.950Z,50.3
2022-10-22T00:43:35.464Z,49.6
2022-10-22T00:48:53.373Z,49.7
2022-10-22T00:54:11.857Z,50.1
2022-10-22T00:59:30.375Z,50.3
2022-10-22T01:04:48.838Z,50.1
2022-10-22T01:10:07.600Z,49.8
2022-10-22T01:15:25.837Z,50.1
2022-10-22T01:20:44.307Z,50
2022-10-22T01:26:03.079Z,50.2
2022-10-22T01:31:21.599Z,50
2022-10-22T01:36:39.792Z,50.9
2022-10-22T01:41:58.557Z,51.1
2022-10-22T01:47:16.539Z,50.8
2022-10-22T01:52:34.716Z,49.9
2022-10-22T01:57:53.473Z,50.6
2022-10-22T02:03:12.280Z,50.1
2022-10-22T02:08:30.177Z,50.3
2022-10-22T02:13:48.390Z,49.9
2022-10-22T02:19:06.617Z,49.8
2022-10-22T02:24:25.095Z,50.1
2022-10-22T02:29:43.312Z,50.2
2022-10-22T02:35:01.537Z,50.1
2022-10-22T02:40:19.725Z,50.9
2022-10-22T02:45:38.218Z,50
2022-10-22T02:50:56.732Z,50.3
2022-10-22T02:56:14.914Z,50.5
2022-10-22T03:01:33.402Z,51.2
2022-10-22T03:06:51.914Z,50.1
2022-10-22T03:12:10.371Z,50.3
2022-10-22T03:17:28.306Z,50.3
2022-10-22T03:22:47.090Z,50.3
2022-10-22T03:28:05.710Z,50.5
2022-10-22T03:33:24.178Z,50.1
2022-10-22T03:38:42.410Z,50.9
2022-10-22T03:44:00.864Z,51
2022-10-22T03:49:18.797Z,50.6
2022-10-22T03:59:55.490Z,50.1
2022-10-22T04:10:33.302Z,50.7
2022-10-22T04:15:51.478Z,50
2022-10-22T04:21:10.252Z,50.4
2022-10-22T04:26:28.472Z,49.9
2022-10-22T04:31:46.665Z,50.6
2022-10-22T04:37:04.874Z,49.7
2022-10-22T04:42:22.831Z,49.7
2022-10-22T04:47:41.838Z,50.4
2022-10-22T04:53:00.595Z,50.4
2022-10-22T04:58:19.101Z,50.4
2022-10-22T05:03:37.019Z,49.9
2022-10-22T05:08:55.784Z,50.6
2022-10-22T05:14:14.014Z,49.8
2022-10-22T05:19:32.472Z,50.4
2022-10-22T05:24:50.667Z,49.5
2022-10-22T05:30:09.458Z,49.9
2022-10-22T05:35:27.921Z,49.7
2022-10-22T05:40:46.408Z,49.7
2022-10-22T05:46:04.913Z,49.7
2022-10-22T05:51:23.654Z,50.3
2022-10-22T05:56:42.410Z,50.6
2022-10-22T06:02:01.078Z,49.8
2022-10-22T06:07:19.268Z,50.2
2022-10-22T06:12:38.498Z,50.4
2022-10-22T06:17:57.377Z,49.2
2022-10-22T06:23:16.122Z,49.9
2022-10-22T06:28:35.386Z,49.9
2022-10-22T06:33:54.255Z,50.3
2022-10-22T06:39:12.417Z,49.2
2022-10-22T06:44:15.865Z,49.9
2022-10-22T06:49:35.778Z,49.5
2022-10-22T06:54:54.949Z,50.3
2022-10-22T07:00:13.723Z,50.2
2022-10-22T07:05:32.727Z,50
2022-10-22T07:10:36.728Z,49.5
2022-10-22T07:15:55.677Z,44.6
2022-10-22T07:21:15.013Z,44.8
2022-10-22T07:26:34.173Z,45.4
2022-10-22T07:31:39.023Z,47.1
2022-10-22T07:36:57.271Z,46.9
2022-10-22T07:42:15.721Z,47.6
2022-10-22T07:47:34.476Z,48.2
2022-10-22T07:52:58.602Z,48.5
2022-10-22T07:58:16.491Z,48.5
2022-10-22T08:03:34.709Z,47.8
2022-10-22T08:08:53.550Z,48.4
2022-10-22T08:14:12.372Z,47.9
2022-10-22T08:19:30.584Z,47.8
2022-10-22T08:24:49.123Z,47.9
2022-10-22T08:30:07.600Z,47.6
2022-10-22T08:35:25.812Z,48.3
2022-10-22T08:40:44.657Z,47.6
2022-10-22T08:46:03.141Z,48.3
2022-10-22T08:51:21.892Z,47.5
2022-10-22T08:56:40.689Z,47.9
2022-10-22T09:01:58.862Z,47.6
2022-10-22T09:07:16.793Z,48.2
2022-10-22T09:12:34.747Z,47.9
2022-10-22T09:17:53.244Z,47.5
2022-10-22T09:23:11.729Z,48.3
2022-10-22T09:28:30.635Z,48.4
2022-10-22T09:33:49.380Z,47.4
2022-10-22T09:39:07.657Z,48.3
2022-10-22T09:44:25.617Z,48.5
2022-10-22T09:49:43.800Z,48.2
2022-10-22T09:55:02.276Z,48.1
2022-10-22T10:00:21.080Z,48.4
2022-10-22T10:05:23.915Z,48.4
2022-10-22T10:10:42.403Z,48
2022-10-22T10:16:01.167Z,48.5
2022-10-22T10:21:19.360Z,48
2022-10-22T10:26:37.867Z,48.2
2022-10-22T10:31:56.441Z,47.5
2022-10-22T10:37:14.904Z,47.2
2022-10-22T10:42:33.713Z,47
2022-10-22T10:47:52.183Z,47.7
2022-10-22T10:53:10.366Z,47.7
2022-10-22T10:58:28.596Z,46.5
2022-10-22T11:03:47.388Z,42.5
2022-10-22T11:09:05.927Z,42.2
2022-10-22T11:14:30.273Z,44.5
2022-10-22T11:20:00.555Z,45.8
2022-10-22T11:25:18.856Z,46.3
2022-10-22T11:30:37.045Z,47.1
2022-10-22T11:35:55.544Z,47.2
2022-10-22T11:41:14.001Z,46.8
2022-10-22T11:46:32.463Z,47.5
2022-10-22T11:51:50.693Z,47.4
2022-10-22T11:57:09.157Z,46.9
2022-10-22T12:02:27.633Z,47.6
2022-10-22T12:07:46.409Z,47.2
2022-10-22T12:13:04.854Z,48.7
2022-10-22T12:18:23.615Z,48.3
2022-10-22T12:23:42.395Z,47.8
2022-10-22T12:29:00.840Z,47.5
2022-10-22T12:34:19.042Z,48
2022-10-22T12:39:37.559Z,48.2
2022-10-22T12:44:56.294Z,48.2
2022-10-22T12:50:14.768Z,48.5
2022-10-22T12:55:33.538Z,48.7
2022-10-22T13:00:51.907Z,47.5
2022-10-22T13:06:10.367Z,47.8
2022-10-22T13:11:29.155Z,47.4
2022-10-22T13:16:47.608Z,47.5
2022-10-22T13:22:05.814Z,47.5
2022-10-22T13:27:24.598Z,48.8
2022-10-22T13:32:43.048Z,48.9
2022-10-22T13:38:01.537Z,48.7
2022-10-22T13:43:19.751Z,48.1
2022-10-22T13:48:38.502Z,48.7
2022-10-22T13:53:56.695Z,48.9
2022-10-22T13:59:23.828Z,49.3
2022-10-22T14:04:42.455Z,45.3
2022-10-22T14:10:00.970Z,47.3
2022-10-22T14:15:19.446Z,47.4
2022-10-22T14:20:38.174Z,48.4
2022-10-22T14:25:56.654Z,48.9
2022-10-22T14:31:15.175Z,49.5
2022-10-22T14:36:33.932Z,50
2022-10-22T14:41:52.685Z,50.1
2022-10-22T14:47:10.903Z,49.8
2022-10-22T14:52:15.757Z,50
2022-10-22T14:57:34.249Z,49.3
2022-10-22T15:02:52.489Z,49
2022-10-22T15:08:11.231Z,49.9
2022-10-22T15:13:30.006Z,50.5
2022-10-22T15:18:48.813Z,50.5
2022-10-22T15:24:07.283Z,50.5
2022-10-22T15:29:26.029Z,50
2022-10-22T15:34:44.811Z,50
2022-10-22T15:40:03.268Z,50.2
2022-10-22T15:45:21.472Z,50.3
2022-10-22T15:50:39.983Z,50
2022-10-22T15:55:58.452Z,50
2022-10-22T16:01:17.087Z,50.1
2022-10-22T16:06:35.634Z,50.4
2022-10-22T16:11:54.194Z,50.6
2022-10-22T16:17:12.452Z,50.7
2022-10-22T16:22:30.978Z,50.4
2022-10-22T16:27:49.442Z,49.8
2022-10-22T16:33:07.944Z,50.2
2022-10-22T16:38:26.751Z,50
2022-10-22T16:43:45.192Z,50.1
2022-10-22T16:49:03.685Z,50.5
2022-10-22T16:54:22.210Z,49.8
2022-10-22T16:59:40.662Z,50.5
2022-10-22T17:04:59.154Z,50.6
2022-10-22T17:10:17.433Z,50.4
2022-10-22T17:15:35.886Z,49.8
2022-10-22T17:20:54.099Z,49.8
2022-10-22T17:26:12.327Z,50.5
2022-10-22T17:31:31.072Z,50.7
2022-10-22T17:36:49.284Z,50
2022-10-22T17:42:07.803Z,49.9
2022-10-22T17:47:26.560Z,50.6
2022-10-22T17:52:45.362Z,50.5
2022-10-22T17:58:03.607Z,50.4
2022-10-22T18:03:22.078Z,49.9
2022-10-22T18:08:40.996Z,50.5
2022-10-22T18:13:59.259Z,50.6
2022-10-22T18:19:17.715Z,49.8
2022-10-22T18:24:35.935Z,50.6
2022-10-22T18:29:54.441Z,50.4
2022-10-22T18:35:12.638Z,50.6
2022-10-22T18:40:31.395Z,50.1
2022-10-22T18:45:50.194Z,50.5
2022-10-22T18:51:08.662Z,50.2
2022-10-22T18:56:26.884Z,50.5
2022-10-22T19:01:45.386Z,49.8
2022-10-22T19:07:04.034Z,49.8
2022-10-22T19:12:22.636Z,50
2022-10-22T19:17:42.296Z,51.2
2022-10-22T19:23:00.723Z,51.1
2022-10-22T19:28:19.487Z,51
2022-10-22T19:33:22.907Z,49.7
2022-10-22T19:38:41.335Z,49.1
2022-10-22T19:43:59.816Z,50.1
2022-10-22T19:49:23.480Z,51.4
2022-10-22T19:54:41.785Z,50.5
2022-10-22T20:00:00.487Z,50.1
2022-10-22T20:05:19.573Z,50.4
2022-10-22T20:10:38.005Z,50.7
2022-10-22T20:15:56.196Z,50.6
2022-10-22T20:21:14.976Z,50
2022-10-22T20:26:33.752Z,49.6
2022-10-22T20:31:52.518Z,50.6
2022-10-22T20:37:11.028Z,50.1
2022-10-22T20:42:29.510Z,50.7
2022-10-22T20:48:03.161Z,50.8
2022-10-22T20:53:21.456Z,50.6
2022-10-22T20:58:40.052Z,51.2
2022-10-22T21:03:58.815Z,51.2
2022-10-22T21:09:17.425Z,51.4
2022-10-22T21:14:35.682Z,50.8
2022-10-22T21:19:53.907Z,51.2
2022-10-22T21:25:12.419Z,50.8
2022-10-22T21:30:30.881Z,50.9
2022-10-22T21:35:49.647Z,50.7
2022-10-22T21:41:07.876Z,51.1
2022-10-22T21:46:26.352Z,51
2022-10-22T21:51:44.827Z,50.3
2022-10-22T21:57:02.792Z,50.9
2022-10-22T22:07:40.074Z,50.9
2022-10-22T22:12:58.600Z,50.8
2022-10-22T22:18:17.065Z,50.3
2022-10-22T22:23:35.559Z,50.1
2022-10-22T22:28:53.511Z,50.3
2022-10-22T22:34:11.979Z,50.7
2022-10-22T22:39:30.468Z,50.4
2022-10-22T22:44:48.990Z,50.2
2022-10-22T22:50:07.474Z,50.2
2022-10-22T22:55:26.249Z,50.2
2022-10-22T23:00:44.775Z,51.1
2022-10-22T23:06:03.242Z,51
2022-10-22T23:11:21.449Z,50.2
2022-10-22T23:16:39.971Z,50.4
2022-10-22T23:21:58.731Z,51.1
2022-10-22T23:27:17.510Z,50.7
2022-10-22T23:32:35.733Z,50.3
2022-10-22T23:37:54.199Z,50.8
2022-10-22T23:43:12.694Z,50.3
2022-10-22T23:48:31.213Z,51
2022-10-22T23:53:49.397Z,51
2022-10-22T23:59:07.724Z,50.4
